sensor_id;sensor_type;location;lat;lon;timestamp;P1;durP1;ratioP1;P2;durP2;ratioP2
37164;SDS011;23057;48.554;14.454;2023-07-13T00:00:14;2.67;;;1.95;;
37164;SDS011;23057;48.554;14.454;2023-07-13T00:02:46;5.03;;;2.20;;
37164;SDS011;23057;48.554;14.454;2023-07-13T00:05:17;5.40;;;2.60;;
37164;SDS011;23057;48.554;14.454;2023-07-13T00:07:48;4.63;;;2.50;;
37164;SDS011;23057;48.554;14.454;2023-07-13T00:10:21;4.15;;;2.10;;
37164;SDS011;23057;48.554;14.454;2023-07-13T00:12:53;3.78;;;2.60;;
37164;SDS011;23057;48.554;14.454;2023-07-13T00:15:25;6.30;;;2.55;;
37164;SDS011;23057;48.554;14.454;2023-07-13T00:17:57;6.40;;;2.22;;
37164;SDS011;23057;48.554;14.454;2023-07-13T00:20:28;6.45;;;3.00;;
37164;SDS011;23057;48.554;14.454;2023-07-13T00:22:58;5.18;;;2.40;;
37164;SDS011;23057;48.554;14.454;2023-07-13T00:25:29;5.68;;;2.08;;
37164;SDS011;23057;48.554;14.454;2023-07-13T00:28:00;5.20;;;2.63;;
37164;SDS011;23057;48.554;14.454;2023-07-13T00:30:32;7.15;;;2.97;;
37164;SDS011;23057;48.554;14.454;2023-07-13T00:33:03;5.40;;;2.85;;
37164;SDS011;23057;48.554;14.454;2023-07-13T00:35:34;4.07;;;2.50;;
37164;SDS011;23057;48.554;14.454;2023-07-13T00:38:05;4.53;;;2.88;;
37164;SDS011;23057;48.554;14.454;2023-07-13T00:40:35;6.43;;;3.08;;
37164;SDS011;23057;48.554;14.454;2023-07-13T00:43:13;7.72;;;3.22;;
37164;SDS011;23057;48.554;14.454;2023-07-13T00:48:21;5.80;;;3.10;;
37164;SDS011;23057;48.554;14.454;2023-07-13T00:51:07;5.97;;;2.92;;
37164;SDS011;23057;48.554;14.454;2023-07-13T00:53:40;5.45;;;3.17;;
37164;SDS011;23057;48.554;14.454;2023-07-13T00:56:12;7.20;;;3.30;;
37164;SDS011;23057;48.554;14.454;2023-07-13T00:58:43;5.45;;;2.90;;
37164;SDS011;23057;48.554;14.454;2023-07-13T02:43:17;6.13;;;4.25;;
37164;SDS011;23057;48.554;14.454;2023-07-13T02:45:48;6.05;;;4.28;;
37164;SDS011;23057;48.554;14.454;2023-07-13T02:48:19;5.35;;;3.97;;
37164;SDS011;23057;48.554;14.454;2023-07-13T02:50:49;7.72;;;4.35;;
37164;SDS011;23057;48.554;14.454;2023-07-13T02:53:20;7.15;;;4.72;;
37164;SDS011;23057;48.554;14.454;2023-07-13T02:55:52;6.35;;;4.40;;
37164;SDS011;23057;48.554;14.454;2023-07-13T02:58:23;6.03;;;4.63;;
37164;SDS011;23057;48.554;14.454;2023-07-13T03:00:55;6.18;;;3.97;;
37164;SDS011;23057;48.554;14.454;2023-07-13T03:03:27;6.43;;;3.95;;
37164;SDS011;23057;48.554;14.454;2023-07-13T03:06:02;5.88;;;3.58;;
37164;SDS011;23057;48.554;14.454;2023-07-13T03:08:37;7.30;;;3.83;;
37164;SDS011;23057;48.554;14.454;2023-07-13T03:11:12;5.00;;;3.75;;
37164;SDS011;23057;48.554;14.454;2023-07-13T03:13:48;5.18;;;4.10;;
37164;SDS011;23057;48.554;14.454;2023-07-13T03:16:19;7.00;;;4.35;;
37164;SDS011;23057;48.554;14.454;2023-07-13T03:18:50;8.35;;;4.00;;
37164;SDS011;23057;48.554;14.454;2023-07-13T03:21:21;9.73;;;3.75;;
37164;SDS011;23057;48.554;14.454;2023-07-13T03:23:52;9.00;;;4.28;;
37164;SDS011;23057;48.554;14.454;2023-07-13T03:26:23;8.15;;;4.10;;
37164;SDS011;23057;48.554;14.454;2023-07-13T03:28:54;8.02;;;3.90;;
37164;SDS011;23057;48.554;14.454;2023-07-13T03:31:26;6.05;;;3.85;;
37164;SDS011;23057;48.554;14.454;2023-07-13T03:34:00;5.03;;;3.47;;
37164;SDS011;23057;48.554;14.454;2023-07-13T03:36:31;5.40;;;3.78;;
37164;SDS011;23057;48.554;14.454;2023-07-13T03:39:03;6.40;;;3.75;;
37164;SDS011;23057;48.554;14.454;2023-07-13T03:41:38;4.50;;;3.38;;
37164;SDS011;23057;48.554;14.454;2023-07-13T03:44:09;7.50;;;3.50;;
37164;SDS011;23057;48.554;14.454;2023-07-13T03:46:39;4.43;;;3.78;;
37164;SDS011;23057;48.554;14.454;2023-07-13T03:49:10;5.85;;;3.72;;
37164;SDS011;23057;48.554;14.454;2023-07-13T03:51:41;7.25;;;3.60;;
37164;SDS011;23057;48.554;14.454;2023-07-13T03:54:12;5.07;;;3.65;;
37164;SDS011;23057;48.554;14.454;2023-07-13T03:56:43;7.50;;;3.63;;
37164;SDS011;23057;48.554;14.454;2023-07-13T03:59:14;5.57;;;3.50;;
37164;SDS011;23057;48.554;14.454;2023-07-13T04:01:45;7.68;;;3.90;;
37164;SDS011;23057;48.554;14.454;2023-07-13T04:04:16;3.88;;;3.28;;
37164;SDS011;23057;48.554;14.454;2023-07-13T04:06:47;7.93;;;4.30;;
37164;SDS011;23057;48.554;14.454;2023-07-13T04:09:17;5.63;;;3.90;;
37164;SDS011;23057;48.554;14.454;2023-07-13T04:11:48;4.45;;;3.13;;
37164;SDS011;23057;48.554;14.454;2023-07-13T04:14:20;3.95;;;2.83;;
37164;SDS011;23057;48.554;14.454;2023-07-13T04:16:51;4.50;;;2.42;;
37164;SDS011;23057;48.554;14.454;2023-07-13T04:19:24;6.57;;;2.63;;
37164;SDS011;23057;48.554;14.454;2023-07-13T04:21:55;6.10;;;2.92;;
37164;SDS011;23057;48.554;14.454;2023-07-13T04:24:26;4.72;;;3.15;;
37164;SDS011;23057;48.554;14.454;2023-07-13T04:26:56;7.35;;;4.55;;
37164;SDS011;23057;48.554;14.454;2023-07-13T04:29:29;9.10;;;4.35;;
37164;SDS011;23057;48.554;14.454;2023-07-13T04:32:00;7.18;;;4.65;;
37164;SDS011;23057;48.554;14.454;2023-07-13T04:34:31;6.55;;;4.22;;
37164;SDS011;23057;48.554;14.454;2023-07-13T04:37:02;5.68;;;4.03;;
37164;SDS011;23057;48.554;14.454;2023-07-13T04:39:34;5.57;;;3.72;;
37164;SDS011;23057;48.554;14.454;2023-07-13T04:42:05;4.20;;;3.60;;
37164;SDS011;23057;48.554;14.454;2023-07-13T04:44:36;7.70;;;2.83;;
37164;SDS011;23057;48.554;14.454;2023-07-13T04:47:07;4.18;;;2.75;;
37164;SDS011;23057;48.554;14.454;2023-07-13T04:49:38;5.78;;;3.00;;
37164;SDS011;23057;48.554;14.454;2023-07-13T04:52:09;6.22;;;3.22;;
37164;SDS011;23057;48.554;14.454;2023-07-13T04:54:41;5.40;;;2.85;;
37164;SDS011;23057;48.554;14.454;2023-07-13T04:57:12;5.88;;;3.17;;
37164;SDS011;23057;48.554;14.454;2023-07-13T04:59:43;4.47;;;3.70;;
37164;SDS011;23057;48.554;14.454;2023-07-13T05:02:14;9.13;;;4.63;;
37164;SDS011;23057;48.554;14.454;2023-07-13T05:04:46;6.30;;;4.40;;
37164;SDS011;23057;48.554;14.454;2023-07-13T05:07:21;5.78;;;3.65;;
37164;SDS011;23057;48.554;14.454;2023-07-13T05:09:52;4.80;;;3.55;;
37164;SDS011;23057;48.554;14.454;2023-07-13T05:12:23;9.30;;;3.78;;
37164;SDS011;23057;48.554;14.454;2023-07-13T05:14:54;5.85;;;4.05;;
37164;SDS011;23057;48.554;14.454;2023-07-13T05:17:25;8.18;;;3.47;;
37164;SDS011;23057;48.554;14.454;2023-07-13T05:19:55;6.25;;;4.57;;
37164;SDS011;23057;48.554;14.454;2023-07-13T05:22:26;6.75;;;3.35;;
37164;SDS011;23057;48.554;14.454;2023-07-13T05:24:57;7.25;;;4.03;;
37164;SDS011;23057;48.554;14.454;2023-07-13T05:27:28;5.18;;;3.00;;
37164;SDS011;23057;48.554;14.454;2023-07-13T05:29:59;7.20;;;3.08;;
37164;SDS011;23057;48.554;14.454;2023-07-13T05:32:29;5.10;;;2.20;;
37164;SDS011;23057;48.554;14.454;2023-07-13T05:35:01;4.78;;;2.90;;
37164;SDS011;23057;48.554;14.454;2023-07-13T05:37:32;3.47;;;2.13;;
37164;SDS011;23057;48.554;14.454;2023-07-13T05:40:03;3.70;;;2.30;;
37164;SDS011;23057;48.554;14.454;2023-07-13T05:42:35;3.85;;;2.90;;
37164;SDS011;23057;48.554;14.454;2023-07-13T05:45:06;5.32;;;2.70;;
37164;SDS011;23057;48.554;14.454;2023-07-13T05:47:38;4.60;;;2.80;;
37164;SDS011;23057;48.554;14.454;2023-07-13T05:50:09;3.70;;;2.40;;
37164;SDS011;23057;48.554;14.454;2023-07-13T05:52:40;5.47;;;2.33;;
37164;SDS011;23057;48.554;14.454;2023-07-13T05:55:11;2.85;;;2.00;;
37164;SDS011;23057;48.554;14.454;2023-07-13T05:57:41;3.60;;;2.42;;
37164;SDS011;23057;48.554;14.454;2023-07-13T06:00:12;5.60;;;2.95;;
37164;SDS011;23057;48.554;14.454;2023-07-13T06:02:44;3.25;;;2.00;;
37164;SDS011;23057;48.554;14.454;2023-07-13T06:05:15;2.80;;;2.15;;
37164;SDS011;23057;48.554;14.454;2023-07-13T06:07:46;3.60;;;2.00;;
37164;SDS011;23057;48.554;14.454;2023-07-13T06:10:17;4.32;;;2.70;;
37164;SDS011;23057;48.554;14.454;2023-07-13T06:12:48;4.70;;;2.00;;
37164;SDS011;23057;48.554;14.454;2023-07-13T06:15:19;3.83;;;1.90;;
37164;SDS011;23057;48.554;14.454;2023-07-13T06:17:50;2.83;;;1.85;;
37164;SDS011;23057;48.554;14.454;2023-07-13T06:20:20;8.35;;;2.40;;
37164;SDS011;23057;48.554;14.454;2023-07-13T06:22:51;4.05;;;2.50;;
37164;SDS011;23057;48.554;14.454;2023-07-13T06:25:22;3.83;;;2.05;;
37164;SDS011;23057;48.554;14.454;2023-07-13T06:27:53;5.47;;;2.17;;
37164;SDS011;23057;48.554;14.454;2023-07-13T06:30:23;6.90;;;2.00;;
37164;SDS011;23057;48.554;14.454;2023-07-13T06:32:55;6.70;;;2.60;;
37164;SDS011;23057;48.554;14.454;2023-07-13T06:35:25;3.78;;;2.45;;
37164;SDS011;23057;48.554;14.454;2023-07-13T06:37:56;5.75;;;2.17;;
37164;SDS011;23057;48.554;14.454;2023-07-13T06:40:27;3.92;;;2.33;;
37164;SDS011;23057;48.554;14.454;2023-07-13T06:42:59;14.55;;;2.85;;
37164;SDS011;23057;48.554;14.454;2023-07-13T06:45:29;5.50;;;2.10;;
37164;SDS011;23057;48.554;14.454;2023-07-13T06:48:02;9.50;;;3.30;;
37164;SDS011;23057;48.554;14.454;2023-07-13T06:50:34;5.85;;;2.50;;
37164;SDS011;23057;48.554;14.454;2023-07-13T06:53:04;4.60;;;2.58;;
37164;SDS011;23057;48.554;14.454;2023-07-13T06:55:35;6.03;;;2.83;;
37164;SDS011;23057;48.554;14.454;2023-07-13T06:58:07;3.92;;;2.45;;
37164;SDS011;23057;48.554;14.454;2023-07-13T07:00:37;4.47;;;2.67;;
37164;SDS011;23057;48.554;14.454;2023-07-13T07:03:10;7.43;;;3.00;;
37164;SDS011;23057;48.554;14.454;2023-07-13T07:05:41;4.57;;;2.63;;
37164;SDS011;23057;48.554;14.454;2023-07-13T07:08:11;4.72;;;2.55;;
37164;SDS011;23057;48.554;14.454;2023-07-13T07:10:43;7.70;;;2.60;;
37164;SDS011;23057;48.554;14.454;2023-07-13T07:13:14;4.15;;;2.38;;
37164;SDS011;23057;48.554;14.454;2023-07-13T07:15:45;8.98;;;3.45;;
37164;SDS011;23057;48.554;14.454;2023-07-13T07:18:16;3.70;;;2.30;;
37164;SDS011;23057;48.554;14.454;2023-07-13T07:20:48;3.60;;;2.60;;
37164;SDS011;23057;48.554;14.454;2023-07-13T07:23:19;3.75;;;2.75;;
37164;SDS011;23057;48.554;14.454;2023-07-13T07:25:50;5.72;;;3.17;;
37164;SDS011;23057;48.554;14.454;2023-07-13T07:28:21;6.03;;;3.83;;
37164;SDS011;23057;48.554;14.454;2023-07-13T07:30:53;5.00;;;3.13;;
37164;SDS011;23057;48.554;14.454;2023-07-13T07:33:27;4.25;;;3.45;;
37164;SDS011;23057;48.554;14.454;2023-07-13T07:35:58;5.57;;;2.80;;
37164;SDS011;23057;48.554;14.454;2023-07-13T07:38:29;4.55;;;2.67;;
37164;SDS011;23057;48.554;14.454;2023-07-13T07:41:02;4.80;;;2.97;;
37164;SDS011;23057;48.554;14.454;2023-07-13T07:43:35;5.95;;;2.40;;
37164;SDS011;23057;48.554;14.454;2023-07-13T07:46:06;7.57;;;2.90;;
37164;SDS011;23057;48.554;14.454;2023-07-13T07:48:37;4.10;;;2.72;;
37164;SDS011;23057;48.554;14.454;2023-07-13T07:51:08;3.67;;;2.58;;
37164;SDS011;23057;48.554;14.454;2023-07-13T07:53:39;6.50;;;3.70;;
37164;SDS011;23057;48.554;14.454;2023-07-13T07:56:09;8.80;;;4.13;;
37164;SDS011;23057;48.554;14.454;2023-07-13T07:58:40;8.57;;;2.83;;
37164;SDS011;23057;48.554;14.454;2023-07-13T08:01:12;8.13;;;3.60;;
37164;SDS011;23057;48.554;14.454;2023-07-13T08:03:42;4.10;;;3.20;;
37164;SDS011;23057;48.554;14.454;2023-07-13T08:06:13;6.10;;;3.80;;
37164;SDS011;23057;48.554;14.454;2023-07-13T08:08:45;5.57;;;3.55;;
37164;SDS011;23057;48.554;14.454;2023-07-13T08:11:16;5.63;;;3.33;;
37164;SDS011;23057;48.554;14.454;2023-07-13T08:13:49;5.57;;;3.50;;
37164;SDS011;23057;48.554;14.454;2023-07-13T08:16:20;6.93;;;3.90;;
37164;SDS011;23057;48.554;14.454;2023-07-13T08:18:52;6.25;;;3.70;;
37164;SDS011;23057;48.554;14.454;2023-07-13T08:21:24;9.23;;;4.80;;
37164;SDS011;23057;48.554;14.454;2023-07-13T08:23:55;6.28;;;3.08;;
37164;SDS011;23057;48.554;14.454;2023-07-13T08:26:26;3.97;;;2.92;;
37164;SDS011;23057;48.554;14.454;2023-07-13T08:28:57;5.50;;;2.55;;
37164;SDS011;23057;48.554;14.454;2023-07-13T08:31:28;5.70;;;3.05;;
37164;SDS011;23057;48.554;14.454;2023-07-13T08:33:59;5.20;;;2.85;;
37164;SDS011;23057;48.554;14.454;2023-07-13T08:36:30;8.30;;;3.65;;
37164;SDS011;23057;48.554;14.454;2023-07-13T08:39:01;9.63;;;5.15;;
37164;SDS011;23057;48.554;14.454;2023-07-13T08:41:31;9.25;;;4.40;;
37164;SDS011;23057;48.554;14.454;2023-07-13T08:44:04;5.97;;;3.42;;
37164;SDS011;23057;48.554;14.454;2023-07-13T08:46:57;9.00;;;4.05;;
37164;SDS011;23057;48.554;14.454;2023-07-13T08:49:29;8.32;;;3.35;;
37164;SDS011;23057;48.554;14.454;2023-07-13T08:52:02;7.60;;;3.38;;
37164;SDS011;23057;48.554;14.454;2023-07-13T08:55:27;5.32;;;2.90;;
37164;SDS011;23057;48.554;14.454;2023-07-13T08:58:09;10.90;;;3.58;;
37164;SDS011;23057;48.554;14.454;2023-07-13T09:04:50;6.60;;;3.20;;
37164;SDS011;23057;48.554;14.454;2023-07-13T09:11:06;8.18;;;4.38;;
37164;SDS011;23057;48.554;14.454;2023-07-13T09:20:01;5.47;;;4.05;;
37164;SDS011;23057;48.554;14.454;2023-07-13T09:22:59;7.03;;;4.40;;
37164;SDS011;23057;48.554;14.454;2023-07-13T09:25:41;10.10;;;3.97;;
37164;SDS011;23057;48.554;14.454;2023-07-13T09:28:25;9.55;;;4.38;;
37164;SDS011;23057;48.554;14.454;2023-07-13T09:31:06;4.25;;;3.30;;
37164;SDS011;23057;48.554;14.454;2023-07-13T09:33:48;5.03;;;3.95;;
37164;SDS011;23057;48.554;14.454;2023-07-13T09:36:31;5.85;;;3.35;;
37164;SDS011;23057;48.554;14.454;2023-07-13T09:42:01;12.25;;;3.15;;
37164;SDS011;23057;48.554;14.454;2023-07-13T09:44:56;5.70;;;3.40;;
37164;SDS011;23057;48.554;14.454;2023-07-13T09:47:39;5.68;;;2.92;;
37164;SDS011;23057;48.554;14.454;2023-07-13T09:50:14;6.75;;;4.60;;
37164;SDS011;23057;48.554;14.454;2023-07-13T09:52:47;6.38;;;3.33;;
37164;SDS011;23057;48.554;14.454;2023-07-13T09:55:32;6.65;;;2.78;;
37164;SDS011;23057;48.554;14.454;2023-07-13T10:01:02;5.75;;;2.90;;
37164;SDS011;23057;48.554;14.454;2023-07-13T10:03:35;5.93;;;2.60;;
37164;SDS011;23057;48.554;14.454;2023-07-13T10:06:16;5.30;;;2.70;;
37164;SDS011;23057;48.554;14.454;2023-07-13T10:08:55;4.57;;;3.30;;
37164;SDS011;23057;48.554;14.454;2023-07-13T10:11:28;4.63;;;3.00;;
37164;SDS011;23057;48.554;14.454;2023-07-13T10:14:01;6.13;;;3.53;;
37164;SDS011;23057;48.554;14.454;2023-07-13T10:16:46;4.70;;;3.05;;
37164;SDS011;23057;48.554;14.454;2023-07-13T10:19:26;4.85;;;2.85;;
37164;SDS011;23057;48.554;14.454;2023-07-13T10:22:10;8.50;;;2.50;;
37164;SDS011;23057;48.554;14.454;2023-07-13T10:25:01;4.15;;;2.58;;
37164;SDS011;23057;48.554;14.454;2023-07-13T10:27:34;4.15;;;2.45;;
37164;SDS011;23057;48.554;14.454;2023-07-13T10:30:14;3.65;;;2.40;;
37164;SDS011;23057;48.554;14.454;2023-07-13T10:32:57;3.60;;;2.40;;
37164;SDS011;23057;48.554;14.454;2023-07-13T10:35:39;7.97;;;2.25;;
37164;SDS011;23057;48.554;14.454;2023-07-13T10:38:18;3.58;;;2.25;;
37164;SDS011;23057;48.554;14.454;2023-07-13T10:41:07;6.68;;;2.58;;
37164;SDS011;23057;48.554;14.454;2023-07-13T10:43:52;2.97;;;2.33;;
37164;SDS011;23057;48.554;14.454;2023-07-13T10:46:27;3.25;;;2.00;;
37164;SDS011;23057;48.554;14.454;2023-07-13T10:49:05;3.22;;;2.10;;
37164;SDS011;23057;48.554;14.454;2023-07-13T10:51:40;7.72;;;2.33;;
37164;SDS011;23057;48.554;14.454;2023-07-13T10:54:15;4.93;;;2.40;;
37164;SDS011;23057;48.554;14.454;2023-07-13T10:56:53;3.05;;;2.22;;
37164;SDS011;23057;48.554;14.454;2023-07-13T11:02:57;70.00;;;7.05;;
37164;SDS011;23057;48.554;14.454;2023-07-13T11:05:32;17.40;;;3.40;;
37164;SDS011;23057;48.554;14.454;2023-07-13T11:08:13;13.38;;;3.47;;
37164;SDS011;23057;48.554;14.454;2023-07-13T11:18:48;8.20;;;2.03;;
37164;SDS011;23057;48.554;14.454;2023-07-13T11:22:01;11.00;;;2.25;;
37164;SDS011;23057;48.554;14.454;2023-07-13T11:27:41;5.43;;;2.10;;
37164;SDS011;23057;48.554;14.454;2023-07-13T11:33:17;2.45;;;1.58;;
37164;SDS011;23057;48.554;14.454;2023-07-13T11:36:21;3.90;;;2.00;;
37164;SDS011;23057;48.554;14.454;2023-07-13T11:39:03;3.58;;;1.65;;
37164;SDS011;23057;48.554;14.454;2023-07-13T11:41:57;2.47;;;1.42;;
37164;SDS011;23057;48.554;14.454;2023-07-13T11:44:35;4.70;;;1.60;;
37164;SDS011;23057;48.554;14.454;2023-07-13T11:47:17;4.95;;;1.92;;
37164;SDS011;23057;48.554;14.454;2023-07-13T11:49:53;7.07;;;1.88;;
37164;SDS011;23057;48.554;14.454;2023-07-13T11:52:32;2.80;;;1.80;;
37164;SDS011;23057;48.554;14.454;2023-07-13T11:55:13;5.03;;;1.80;;
37164;SDS011;23057;48.554;14.454;2023-07-13T11:57:54;5.65;;;1.50;;
37164;SDS011;23057;48.554;14.454;2023-07-13T12:00:31;2.90;;;1.60;;
37164;SDS011;23057;48.554;14.454;2023-07-13T12:03:03;3.17;;;1.48;;
37164;SDS011;23057;48.554;14.454;2023-07-13T12:05:36;2.78;;;1.52;;
37164;SDS011;23057;48.554;14.454;2023-07-13T12:08:10;3.50;;;1.65;;
37164;SDS011;23057;48.554;14.454;2023-07-13T12:10:41;6.05;;;1.30;;
37164;SDS011;23057;48.554;14.454;2023-07-13T12:13:12;2.63;;;1.20;;
37164;SDS011;23057;48.554;14.454;2023-07-13T12:15:44;3.00;;;1.70;;
37164;SDS011;23057;48.554;14.454;2023-07-13T12:18:19;3.35;;;1.48;;
37164;SDS011;23057;48.554;14.454;2023-07-13T12:21:01;2.85;;;1.60;;
37164;SDS011;23057;48.554;14.454;2023-07-13T12:23:33;2.60;;;1.23;;
37164;SDS011;23057;48.554;14.454;2023-07-13T12:26:06;6.15;;;1.58;;
37164;SDS011;23057;48.554;14.454;2023-07-13T12:28:43;2.58;;;1.63;;
37164;SDS011;23057;48.554;14.454;2023-07-13T12:31:29;3.25;;;1.42;;
37164;SDS011;23057;48.554;14.454;2023-07-13T12:34:17;3.78;;;1.45;;
37164;SDS011;23057;48.554;14.454;2023-07-13T12:36:56;4.40;;;1.98;;
37164;SDS011;23057;48.554;14.454;2023-07-13T12:39:37;4.85;;;2.10;;
37164;SDS011;23057;48.554;14.454;2023-07-13T12:45:30;3.15;;;1.33;;
37164;SDS011;23057;48.554;14.454;2023-07-13T12:48:05;3.67;;;1.30;;
37164;SDS011;23057;48.554;14.454;2023-07-13T12:50:46;2.58;;;1.60;;
37164;SDS011;23057;48.554;14.454;2023-07-13T12:53:21;3.85;;;1.10;;
37164;SDS011;23057;48.554;14.454;2023-07-13T12:56:02;2.17;;;1.17;;
37164;SDS011;23057;48.554;14.454;2023-07-13T12:58:41;4.22;;;1.33;;
37164;SDS011;23057;48.554;14.454;2023-07-13T13:01:14;1.52;;;1.20;;
37164;SDS011;23057;48.554;14.454;2023-07-13T13:03:48;3.63;;;1.70;;
37164;SDS011;23057;48.554;14.454;2023-07-13T13:06:26;2.08;;;1.30;;
37164;SDS011;23057;48.554;14.454;2023-07-13T13:09:00;3.63;;;1.30;;
37164;SDS011;23057;48.554;14.454;2023-07-13T13:11:31;4.63;;;1.80;;
37164;SDS011;23057;48.554;14.454;2023-07-13T13:14:02;5.15;;;1.40;;
37164;SDS011;23057;48.554;14.454;2023-07-13T13:19:18;3.88;;;1.52;;
37164;SDS011;23057;48.554;14.454;2023-07-13T13:21:55;6.68;;;1.75;;
37164;SDS011;23057;48.554;14.454;2023-07-13T13:24:27;3.67;;;1.73;;
37164;SDS011;23057;48.554;14.454;2023-07-13T13:26:59;3.78;;;1.38;;
37164;SDS011;23057;48.554;14.454;2023-07-13T13:29:31;4.20;;;1.73;;
37164;SDS011;23057;48.554;14.454;2023-07-13T13:32:13;2.78;;;1.58;;
37164;SDS011;23057;48.554;14.454;2023-07-13T13:34:45;3.95;;;1.30;;
37164;SDS011;23057;48.554;14.454;2023-07-13T13:37:25;7.97;;;1.73;;
37164;SDS011;23057;48.554;14.454;2023-07-13T13:39:56;2.83;;;1.40;;
37164;SDS011;23057;48.554;14.454;2023-07-13T13:42:26;2.08;;;1.38;;
37164;SDS011;23057;48.554;14.454;2023-07-13T13:44:58;3.97;;;1.50;;
37164;SDS011;23057;48.554;14.454;2023-07-13T13:47:30;6.47;;;1.60;;
37164;SDS011;23057;48.554;14.454;2023-07-13T13:50:16;5.85;;;2.50;;
37164;SDS011;23057;48.554;14.454;2023-07-13T13:52:54;3.83;;;1.50;;
37164;SDS011;23057;48.554;14.454;2023-07-13T13:55:25;2.97;;;1.40;;
37164;SDS011;23057;48.554;14.454;2023-07-13T13:57:57;2.40;;;1.30;;
37164;SDS011;23057;48.554;14.454;2023-07-13T14:00:28;3.05;;;1.30;;
37164;SDS011;23057;48.554;14.454;2023-07-13T14:03:00;6.40;;;1.50;;
37164;SDS011;23057;48.554;14.454;2023-07-13T14:05:31;3.65;;;1.23;;
37164;SDS011;23057;48.554;14.454;2023-07-13T14:08:03;3.63;;;1.40;;
37164;SDS011;23057;48.554;14.454;2023-07-13T14:10:57;4.85;;;1.63;;
37164;SDS011;23057;48.554;14.454;2023-07-13T14:13:35;2.15;;;1.30;;
37164;SDS011;23057;48.554;14.454;2023-07-13T14:16:29;5.47;;;1.20;;
37164;SDS011;23057;48.554;14.454;2023-07-13T14:19:15;2.15;;;1.30;;
37164;SDS011;23057;48.554;14.454;2023-07-13T14:22:02;3.78;;;1.42;;
37164;SDS011;23057;48.554;14.454;2023-07-13T14:24:43;2.83;;;1.65;;
37164;SDS011;23057;48.554;14.454;2023-07-13T14:27:27;4.25;;;1.95;;
37164;SDS011;23057;48.554;14.454;2023-07-13T14:29:58;3.03;;;1.40;;
37164;SDS011;23057;48.554;14.454;2023-07-13T14:32:28;3.92;;;1.70;;
37164;SDS011;23057;48.554;14.454;2023-07-13T14:35:00;4.20;;;1.73;;
37164;SDS011;23057;48.554;14.454;2023-07-13T14:37:31;2.63;;;1.73;;
37164;SDS011;23057;48.554;14.454;2023-07-13T14:40:04;7.07;;;1.80;;
37164;SDS011;23057;48.554;14.454;2023-07-13T14:42:48;3.08;;;1.70;;
37164;SDS011;23057;48.554;14.454;2023-07-13T14:45:20;7.25;;;2.05;;
37164;SDS011;23057;48.554;14.454;2023-07-13T14:47:51;5.55;;;2.40;;
37164;SDS011;23057;48.554;14.454;2023-07-13T14:50:31;4.47;;;2.05;;
37164;SDS011;23057;48.554;14.454;2023-07-13T14:53:04;3.50;;;1.40;;
37164;SDS011;23057;48.554;14.454;2023-07-13T14:55:41;2.47;;;1.58;;
37164;SDS011;23057;48.554;14.454;2023-07-13T14:58:12;6.82;;;1.50;;
37164;SDS011;23057;48.554;14.454;2023-07-13T15:00:43;4.22;;;1.65;;
37164;SDS011;23057;48.554;14.454;2023-07-13T15:03:20;4.43;;;1.58;;
37164;SDS011;23057;48.554;14.454;2023-07-13T15:05:55;2.00;;;1.35;;
37164;SDS011;23057;48.554;14.454;2023-07-13T15:08:26;3.88;;;1.60;;
37164;SDS011;23057;48.554;14.454;2023-07-13T15:10:57;2.47;;;1.40;;
37164;SDS011;23057;48.554;14.454;2023-07-13T15:13:30;4.97;;;1.60;;
37164;SDS011;23057;48.554;14.454;2023-07-13T15:16:01;3.47;;;1.38;;
37164;SDS011;23057;48.554;14.454;2023-07-13T15:18:31;5.30;;;1.67;;
37164;SDS011;23057;48.554;14.454;2023-07-13T15:21:04;4.40;;;1.40;;
37164;SDS011;23057;48.554;14.454;2023-07-13T15:23:43;4.20;;;2.75;;
37164;SDS011;23057;48.554;14.454;2023-07-13T15:26:14;5.78;;;1.38;;
37164;SDS011;23057;48.554;14.454;2023-07-13T15:28:48;3.78;;;1.40;;
37164;SDS011;23057;48.554;14.454;2023-07-13T15:31:20;5.80;;;1.52;;
37164;SDS011;23057;48.554;14.454;2023-07-13T15:34:01;5.13;;;1.27;;
37164;SDS011;23057;48.554;14.454;2023-07-13T15:36:44;2.47;;;1.60;;
37164;SDS011;23057;48.554;14.454;2023-07-13T15:39:15;3.83;;;1.27;;
37164;SDS011;23057;48.554;14.454;2023-07-13T15:41:47;2.70;;;1.40;;
37164;SDS011;23057;48.554;14.454;2023-07-13T15:44:26;3.90;;;1.30;;
37164;SDS011;23057;48.554;14.454;2023-07-13T15:47:01;3.15;;;1.50;;
37164;SDS011;23057;48.554;14.454;2023-07-13T15:49:33;4.03;;;1.15;;
37164;SDS011;23057;48.554;14.454;2023-07-13T15:52:04;2.03;;;1.17;;
37164;SDS011;23057;48.554;14.454;2023-07-13T15:54:42;1.98;;;1.20;;
37164;SDS011;23057;48.554;14.454;2023-07-13T15:57:12;3.97;;;1.30;;
37164;SDS011;23057;48.554;14.454;2023-07-13T15:59:44;3.60;;;1.40;;
37164;SDS011;23057;48.554;14.454;2023-07-13T16:02:19;3.35;;;1.40;;
37164;SDS011;23057;48.554;14.454;2023-07-13T16:04:50;4.63;;;1.20;;
37164;SDS011;23057;48.554;14.454;2023-07-13T16:07:21;4.38;;;1.20;;
37164;SDS011;23057;48.554;14.454;2023-07-13T16:09:52;5.38;;;1.60;;
37164;SDS011;23057;48.554;14.454;2023-07-13T16:12:23;5.50;;;1.15;;
37164;SDS011;23057;48.554;14.454;2023-07-13T16:14:54;3.20;;;1.20;;
37164;SDS011;23057;48.554;14.454;2023-07-13T16:17:25;2.55;;;1.50;;
37164;SDS011;23057;48.554;14.454;2023-07-13T16:19:55;3.15;;;1.40;;
37164;SDS011;23057;48.554;14.454;2023-07-13T16:22:26;2.67;;;1.52;;
37164;SDS011;23057;48.554;14.454;2023-07-13T16:24:57;2.17;;;1.08;;
37164;SDS011;23057;48.554;14.454;2023-07-13T16:27:30;4.68;;;1.70;;
37164;SDS011;23057;48.554;14.454;2023-07-13T16:30:08;2.33;;;1.40;;
37164;SDS011;23057;48.554;14.454;2023-07-13T16:32:51;4.18;;;1.52;;
37164;SDS011;23057;48.554;14.454;2023-07-13T16:35:27;2.50;;;1.10;;
37164;SDS011;23057;48.554;14.454;2023-07-13T16:37:59;4.53;;;1.73;;
37164;SDS011;23057;48.554;14.454;2023-07-13T16:41:01;6.82;;;1.70;;
37164;SDS011;23057;48.554;14.454;2023-07-13T16:43:31;3.00;;;1.77;;
37164;SDS011;23057;48.554;14.454;2023-07-13T16:46:02;4.57;;;1.67;;
37164;SDS011;23057;48.554;14.454;2023-07-13T16:48:33;4.60;;;1.48;;
37164;SDS011;23057;48.554;14.454;2023-07-13T16:51:04;5.50;;;1.20;;
37164;SDS011;23057;48.554;14.454;2023-07-13T16:53:36;3.20;;;1.92;;
37164;SDS011;23057;48.554;14.454;2023-07-13T16:56:08;2.60;;;1.40;;
37164;SDS011;23057;48.554;14.454;2023-07-13T16:58:48;2.58;;;1.25;;
37164;SDS011;23057;48.554;14.454;2023-07-13T17:01:19;2.90;;;1.58;;
37164;SDS011;23057;48.554;14.454;2023-07-13T17:03:50;4.20;;;1.42;;
37164;SDS011;23057;48.554;14.454;2023-07-13T17:06:30;3.13;;;1.48;;
37164;SDS011;23057;48.554;14.454;2023-07-13T17:09:02;3.90;;;1.45;;
37164;SDS011;23057;48.554;14.454;2023-07-13T17:11:36;3.15;;;1.23;;
37164;SDS011;23057;48.554;14.454;2023-07-13T17:14:12;4.97;;;1.77;;
37164;SDS011;23057;48.554;14.454;2023-07-13T17:16:53;5.57;;;1.60;;
37164;SDS011;23057;48.554;14.454;2023-07-13T17:19:28;6.90;;;1.70;;
37164;SDS011;23057;48.554;14.454;2023-07-13T17:22:00;7.53;;;1.35;;
37164;SDS011;23057;48.554;14.454;2023-07-13T17:24:35;4.93;;;1.55;;
37164;SDS011;23057;48.554;14.454;2023-07-13T17:27:06;4.32;;;2.00;;
37164;SDS011;23057;48.554;14.454;2023-07-13T17:29:37;3.17;;;1.52;;
37164;SDS011;23057;48.554;14.454;2023-07-13T17:32:10;2.53;;;1.40;;
37164;SDS011;23057;48.554;14.454;2023-07-13T17:34:49;2.58;;;1.50;;
37164;SDS011;23057;48.554;14.454;2023-07-13T17:37:20;4.72;;;1.40;;
37164;SDS011;23057;48.554;14.454;2023-07-13T17:39:52;3.47;;;1.40;;
37164;SDS011;23057;48.554;14.454;2023-07-13T17:42:23;3.88;;;1.80;;